sensor_id;sensor_type;location;lat;lon;timestamp;P1;durP1;ratioP1;P2;durP2;ratioP2
44078;SDS011;29744;49.078;12.878;2023-05-02T00:00:06;1.33;;;1.05;;
44078;SDS011;29744;49.078;12.878;2023-05-02T00:05:07;1.55;;;1.05;;
44078;SDS011;29744;49.078;12.878;2023-05-02T00:10:07;1.30;;;0.90;;
44078;SDS011;29744;49.078;12.878;2023-05-02T00:15:08;1.33;;;0.88;;
44078;SDS011;29744;49.078;12.878;2023-05-02T00:20:09;1.50;;;0.90;;
44078;SDS011;29744;49.078;12.878;2023-05-02T00:25:10;1.33;;;0.88;;
44078;SDS011;29744;49.078;12.878;2023-05-02T00:30:15;2.10;;;1.00;;
44078;SDS011;29744;49.078;12.878;2023-05-02T00:35:16;1.60;;;1.00;;
44078;SDS011;29744;49.078;12.878;2023-05-02T00:40:17;1.50;;;1.00;;
44078;SDS011;29744;49.078;12.878;2023-05-02T00:45:17;1.35;;;0.90;;
44078;SDS011;29744;49.078;12.878;2023-05-02T00:50:17;1.50;;;0.93;;
44078;SDS011;29744;49.078;12.878;2023-05-02T00:55:18;1.25;;;0.95;;
44078;SDS011;29744;49.078;12.878;2023-05-02T01:00:18;1.75;;;1.02;;
44078;SDS011;29744;49.078;12.878;2023-05-02T01:15:40;1.65;;;1.02;;
44078;SDS011;29744;49.078;12.878;2023-05-02T01:20:42;1.23;;;0.93;;
44078;SDS011;29744;49.078;12.878;2023-05-02T01:31:04;0.70;;;0.70;;
44078;SDS011;29744;49.078;12.878;2023-05-02T01:36:06;1.63;;;1.05;;
44078;SDS011;29744;49.078;12.878;2023-05-02T01:41:07;1.20;;;0.77;;
44078;SDS011;29744;49.078;12.878;2023-05-02T01:46:09;1.20;;;0.82;;
44078;SDS011;29744;49.078;12.878;2023-05-02T01:51:12;1.35;;;0.85;;
44078;SDS011;29744;49.078;12.878;2023-05-02T01:56:17;1.63;;;0.98;;
44078;SDS011;29744;49.078;12.878;2023-05-02T02:01:20;1.17;;;0.90;;
44078;SDS011;29744;49.078;12.878;2023-05-02T02:06:24;1.90;;;0.90;;
44078;SDS011;29744;49.078;12.878;2023-05-02T02:11:31;1.42;;;0.90;;
44078;SDS011;29744;49.078;12.878;2023-05-02T02:16:36;1.45;;;1.00;;
44078;SDS011;29744;49.078;12.878;2023-05-02T02:21:37;1.38;;;0.90;;
44078;SDS011;29744;49.078;12.878;2023-05-02T02:26:41;0.85;;;0.73;;
44078;SDS011;29744;49.078;12.878;2023-05-02T02:31:41;1.35;;;0.80;;
44078;SDS011;29744;49.078;12.878;2023-05-02T02:36:46;0.93;;;0.82;;
44078;SDS011;29744;49.078;12.878;2023-05-02T02:41:59;1.00;;;0.80;;
44078;SDS011;29744;49.078;12.878;2023-05-02T02:47:06;1.33;;;1.00;;
44078;SDS011;29744;49.078;12.878;2023-05-02T02:52:16;1.02;;;0.80;;
44078;SDS011;29744;49.078;12.878;2023-05-02T02:57:44;0.90;;;0.70;;
44078;SDS011;29744;49.078;12.878;2023-05-02T03:02:50;1.13;;;0.80;;
44078;SDS011;29744;49.078;12.878;2023-05-02T03:07:52;1.00;;;0.82;;
44078;SDS011;29744;49.078;12.878;2023-05-02T03:12:53;1.60;;;0.90;;
44078;SDS011;29744;49.078;12.878;2023-05-02T03:17:54;1.35;;;0.80;;
44078;SDS011;29744;49.078;12.878;2023-05-02T03:22:54;1.27;;;0.80;;
44078;SDS011;29744;49.078;12.878;2023-05-02T03:27:56;1.50;;;0.88;;
44078;SDS011;29744;49.078;12.878;2023-05-02T03:32:56;1.15;;;0.80;;
44078;SDS011;29744;49.078;12.878;2023-05-02T03:37:57;1.35;;;0.90;;
44078;SDS011;29744;49.078;12.878;2023-05-02T03:42:57;1.42;;;0.85;;
44078;SDS011;29744;49.078;12.878;2023-05-02T03:47:57;1.05;;;0.75;;
44078;SDS011;29744;49.078;12.878;2023-05-02T03:52:58;1.23;;;0.88;;
44078;SDS011;29744;49.078;12.878;2023-05-02T03:57:58;1.38;;;0.80;;
44078;SDS011;29744;49.078;12.878;2023-05-02T04:03:01;1.17;;;0.98;;
44078;SDS011;29744;49.078;12.878;2023-05-02T04:08:02;1.00;;;0.80;;
44078;SDS011;29744;49.078;12.878;2023-05-02T04:13:02;1.17;;;0.90;;
44078;SDS011;29744;49.078;12.878;2023-05-02T04:18:03;1.30;;;0.95;;
44078;SDS011;29744;49.078;12.878;2023-05-02T04:23:03;1.08;;;0.80;;
44078;SDS011;29744;49.078;12.878;2023-05-02T04:28:04;1.38;;;0.80;;
44078;SDS011;29744;49.078;12.878;2023-05-02T04:33:05;1.20;;;0.80;;
44078;SDS011;29744;49.078;12.878;2023-05-02T04:38:05;1.48;;;0.90;;
44078;SDS011;29744;49.078;12.878;2023-05-02T04:43:06;1.00;;;0.80;;
44078;SDS011;29744;49.078;12.878;2023-05-02T04:48:06;0.93;;;0.80;;
44078;SDS011;29744;49.078;12.878;2023-05-02T04:53:06;1.27;;;0.80;;
44078;SDS011;29744;49.078;12.878;2023-05-02T04:58:07;1.17;;;0.80;;
44078;SDS011;29744;49.078;12.878;2023-05-02T05:03:07;1.17;;;0.77;;
44078;SDS011;29744;49.078;12.878;2023-05-02T05:08:08;1.35;;;1.00;;
44078;SDS011;29744;49.078;12.878;2023-05-02T05:13:08;1.38;;;0.95;;
44078;SDS011;29744;49.078;12.878;2023-05-02T05:18:08;0.88;;;0.70;;
44078;SDS011;29744;49.078;12.878;2023-05-02T05:23:09;1.05;;;0.80;;
44078;SDS011;29744;49.078;12.878;2023-05-02T05:28:09;1.20;;;0.90;;
44078;SDS011;29744;49.078;12.878;2023-05-02T05:33:10;1.17;;;0.98;;
44078;SDS011;29744;49.078;12.878;2023-05-02T05:38:10;1.30;;;0.93;;
44078;SDS011;29744;49.078;12.878;2023-05-02T05:43:10;1.50;;;1.00;;
44078;SDS011;29744;49.078;12.878;2023-05-02T05:48:10;1.05;;;0.80;;
44078;SDS011;29744;49.078;12.878;2023-05-02T05:53:11;1.15;;;0.90;;
44078;SDS011;29744;49.078;12.878;2023-05-02T05:58:12;1.25;;;0.80;;
44078;SDS011;29744;49.078;12.878;2023-05-02T06:03:12;0.98;;;0.80;;
44078;SDS011;29744;49.078;12.878;2023-05-02T06:08:12;1.23;;;0.82;;
44078;SDS011;29744;49.078;12.878;2023-05-02T06:13:13;1.75;;;1.10;;
44078;SDS011;29744;49.078;12.878;2023-05-02T06:18:13;1.63;;;0.98;;
44078;SDS011;29744;49.078;12.878;2023-05-02T06:23:14;1.10;;;0.75;;
44078;SDS011;29744;49.078;12.878;2023-05-02T06:28:14;1.65;;;0.95;;
44078;SDS011;29744;49.078;12.878;2023-05-02T06:33:14;1.15;;;0.82;;
44078;SDS011;29744;49.078;12.878;2023-05-02T06:38:15;1.73;;;0.90;;
44078;SDS011;29744;49.078;12.878;2023-05-02T06:43:17;1.38;;;0.82;;
44078;SDS011;29744;49.078;12.878;2023-05-02T06:48:18;1.23;;;0.90;;
44078;SDS011;29744;49.078;12.878;2023-05-02T06:53:18;0.98;;;0.90;;
44078;SDS011;29744;49.078;12.878;2023-05-02T06:58:18;1.33;;;0.82;;
44078;SDS011;29744;49.078;12.878;2023-05-02T07:03:19;1.67;;;1.00;;
44078;SDS011;29744;49.078;12.878;2023-05-02T07:08:19;1.17;;;0.80;;
44078;SDS011;29744;49.078;12.878;2023-05-02T07:13:21;1.20;;;0.80;;
44078;SDS011;29744;49.078;12.878;2023-05-02T07:18:21;0.80;;;0.65;;
44078;SDS011;29744;49.078;12.878;2023-05-02T07:23:21;1.27;;;0.90;;
44078;SDS011;29744;49.078;12.878;2023-05-02T07:28:22;1.02;;;0.80;;
44078;SDS011;29744;49.078;12.878;2023-05-02T07:33:22;1.38;;;0.80;;
44078;SDS011;29744;49.078;12.878;2023-05-02T07:38:23;1.33;;;0.85;;
44078;SDS011;29744;49.078;12.878;2023-05-02T07:43:23;1.58;;;1.00;;
44078;SDS011;29744;49.078;12.878;2023-05-02T07:48:23;1.15;;;0.80;;
44078;SDS011;29744;49.078;12.878;2023-05-02T07:53:24;1.65;;;1.00;;
44078;SDS011;29744;49.078;12.878;2023-05-02T07:58:24;1.45;;;0.82;;
44078;SDS011;29744;49.078;12.878;2023-05-02T08:03:24;1.30;;;0.82;;
44078;SDS011;29744;49.078;12.878;2023-05-02T08:08:25;0.80;;;0.80;;
44078;SDS011;29744;49.078;12.878;2023-05-02T08:13:26;1.17;;;0.80;;
44078;SDS011;29744;49.078;12.878;2023-05-02T08:18:27;1.58;;;0.82;;
44078;SDS011;29744;49.078;12.878;2023-05-02T08:23:27;2.67;;;1.25;;
44078;SDS011;29744;49.078;12.878;2023-05-02T08:28:27;3.08;;;1.70;;
44078;SDS011;29744;49.078;12.878;2023-05-02T08:33:28;3.92;;;2.35;;
44078;SDS011;29744;49.078;12.878;2023-05-02T08:38:29;4.10;;;2.10;;
44078;SDS011;29744;49.078;12.878;2023-05-02T08:43:29;3.30;;;2.15;;
44078;SDS011;29744;49.078;12.878;2023-05-02T08:48:32;3.85;;;2.40;;
44078;SDS011;29744;49.078;12.878;2023-05-02T08:53:35;3.22;;;2.08;;
44078;SDS011;29744;49.078;12.878;2023-05-02T08:58:36;3.58;;;2.03;;
44078;SDS011;29744;49.078;12.878;2023-05-02T09:03:38;3.42;;;2.20;;
44078;SDS011;29744;49.078;12.878;2023-05-02T09:08:39;3.65;;;2.10;;
44078;SDS011;29744;49.078;12.878;2023-05-02T09:13:50;3.90;;;2.50;;
44078;SDS011;29744;49.078;12.878;2023-05-02T09:18:52;3.83;;;2.38;;
44078;SDS011;29744;49.078;12.878;2023-05-02T09:23:54;3.28;;;2.20;;
44078;SDS011;29744;49.078;12.878;2023-05-02T09:28:57;3.75;;;2.17;;
44078;SDS011;29744;49.078;12.878;2023-05-02T09:34:08;3.20;;;1.95;;
44078;SDS011;29744;49.078;12.878;2023-05-02T09:39:14;3.10;;;1.95;;
44078;SDS011;29744;49.078;12.878;2023-05-02T09:44:16;3.50;;;1.92;;
44078;SDS011;29744;49.078;12.878;2023-05-02T09:49:26;2.67;;;1.80;;
44078;SDS011;29744;49.078;12.878;2023-05-02T09:54:38;3.53;;;2.00;;
44078;SDS011;29744;49.078;12.878;2023-05-02T09:59:39;3.28;;;2.03;;
44078;SDS011;29744;49.078;12.878;2023-05-02T10:04:39;3.67;;;1.98;;
44078;SDS011;29744;49.078;12.878;2023-05-02T10:09:42;2.53;;;1.70;;
44078;SDS011;29744;49.078;12.878;2023-05-02T10:14:46;3.20;;;1.90;;
44078;SDS011;29744;49.078;12.878;2023-05-02T10:20:04;2.60;;;1.60;;
44078;SDS011;29744;49.078;12.878;2023-05-02T10:25:06;2.65;;;1.80;;
44078;SDS011;29744;49.078;12.878;2023-05-02T10:30:07;3.10;;;1.70;;
44078;SDS011;29744;49.078;12.878;2023-05-02T10:35:09;2.85;;;1.83;;
44078;SDS011;29744;49.078;12.878;2023-05-02T10:40:09;2.38;;;1.65;;
44078;SDS011;29744;49.078;12.878;2023-05-02T10:45:12;2.80;;;1.60;;
44078;SDS011;29744;49.078;12.878;2023-05-02T10:50:41;2.90;;;1.90;;
44078;SDS011;29744;49.078;12.878;2023-05-02T10:55:42;3.22;;;1.88;;
44078;SDS011;29744;49.078;12.878;2023-05-02T11:00:43;3.05;;;2.00;;
44078;SDS011;29744;49.078;12.878;2023-05-02T11:06:03;2.58;;;1.67;;
44078;SDS011;29744;49.078;12.878;2023-05-02T11:11:36;2.25;;;1.40;;
44078;SDS011;29744;49.078;12.878;2023-05-02T11:37:42;2.42;;;1.63;;
44078;SDS011;29744;49.078;12.878;2023-05-02T11:42:52;2.50;;;1.55;;
44078;SDS011;29744;49.078;12.878;2023-05-02T11:47:53;3.15;;;1.67;;
44078;SDS011;29744;49.078;12.878;2023-05-02T11:52:56;2.90;;;1.73;;
44078;SDS011;29744;49.078;12.878;2023-05-02T11:57:57;2.72;;;1.60;;
44078;SDS011;29744;49.078;12.878;2023-05-02T12:02:57;2.64;;;1.60;;
44078;SDS011;29744;49.078;12.878;2023-05-02T12:07:58;2.60;;;1.70;;
44078;SDS011;29744;49.078;12.878;2023-05-02T12:13:03;2.03;;;1.45;;
44078;SDS011;29744;49.078;12.878;2023-05-02T12:18:05;4.07;;;1.70;;
44078;SDS011;29744;49.078;12.878;2023-05-02T12:23:06;2.63;;;1.55;;
44078;SDS011;29744;49.078;12.878;2023-05-02T12:28:09;2.47;;;1.60;;
44078;SDS011;29744;49.078;12.878;2023-05-02T12:33:09;2.50;;;1.63;;
44078;SDS011;29744;49.078;12.878;2023-05-02T12:38:14;1.92;;;1.30;;
44078;SDS011;29744;49.078;12.878;2023-05-02T12:43:16;2.50;;;1.60;;
44078;SDS011;29744;49.078;12.878;2023-05-02T12:48:26;2.40;;;1.45;;
44078;SDS011;29744;49.078;12.878;2023-05-02T12:53:36;2.00;;;1.45;;
44078;SDS011;29744;49.078;12.878;2023-05-02T12:58:46;2.22;;;1.42;;
44078;SDS011;29744;49.078;12.878;2023-05-02T13:03:49;2.10;;;1.30;;
44078;SDS011;29744;49.078;12.878;2023-05-02T13:08:49;2.25;;;1.45;;
44078;SDS011;29744;49.078;12.878;2023-05-02T13:13:50;2.92;;;1.80;;
44078;SDS011;29744;49.078;12.878;2023-05-02T13:18:50;2.22;;;1.50;;
44078;SDS011;29744;49.078;12.878;2023-05-02T13:23:50;2.50;;;1.50;;
44078;SDS011;29744;49.078;12.878;2023-05-02T13:28:52;1.90;;;1.25;;
44078;SDS011;29744;49.078;12.878;2023-05-02T13:33:52;2.45;;;1.35;;
44078;SDS011;29744;49.078;12.878;2023-05-02T13:38:52;2.80;;;1.63;;
44078;SDS011;29744;49.078;12.878;2023-05-02T13:43:53;2.88;;;1.63;;
44078;SDS011;29744;49.078;12.878;2023-05-02T13:48:54;2.50;;;1.48;;
44078;SDS011;29744;49.078;12.878;2023-05-02T13:53:54;2.47;;;1.67;;
44078;SDS011;29744;49.078;12.878;2023-05-02T13:58:54;2.85;;;1.58;;
44078;SDS011;29744;49.078;12.878;2023-05-02T14:03:55;2.33;;;1.42;;
44078;SDS011;29744;49.078;12.878;2023-05-02T14:08:55;2.60;;;1.52;;
44078;SDS011;29744;49.078;12.878;2023-05-02T14:13:55;2.92;;;1.52;;
44078;SDS011;29744;49.078;12.878;2023-05-02T14:18:57;2.25;;;1.23;;
44078;SDS011;29744;49.078;12.878;2023-05-02T14:23:57;2.40;;;1.50;;
44078;SDS011;29744;49.078;12.878;2023-05-02T14:28:58;2.42;;;1.40;;
44078;SDS011;29744;49.078;12.878;2023-05-02T14:33:58;2.10;;;1.30;;
44078;SDS011;29744;49.078;12.878;2023-05-02T14:38:58;2.00;;;1.38;;
44078;SDS011;29744;49.078;12.878;2023-05-02T14:43:59;2.10;;;1.35;;
44078;SDS011;29744;49.078;12.878;2023-05-02T14:48:59;1.95;;;1.20;;
44078;SDS011;29744;49.078;12.878;2023-05-02T14:53:59;2.13;;;1.27;;
44078;SDS011;29744;49.078;12.878;2023-05-02T14:59:00;2.17;;;1.33;;
44078;SDS011;29744;49.078;12.878;2023-05-02T15:04:00;2.88;;;1.52;;
44078;SDS011;29744;49.078;12.878;2023-05-02T15:09:00;2.97;;;1.60;;
44078;SDS011;29744;49.078;12.878;2023-05-02T15:14:01;2.22;;;1.42;;
44078;SDS011;29744;49.078;12.878;2023-05-02T15:19:01;2.28;;;1.58;;
44078;SDS011;29744;49.078;12.878;2023-05-02T15:24:01;2.22;;;1.40;;
44078;SDS011;29744;49.078;12.878;2023-05-02T15:29:02;2.28;;;1.40;;
44078;SDS011;29744;49.078;12.878;2023-05-02T15:34:03;2.35;;;1.40;;
44078;SDS011;29744;49.078;12.878;2023-05-02T15:39:03;2.45;;;1.50;;
44078;SDS011;29744;49.078;12.878;2023-05-02T15:44:04;2.28;;;1.00;;
44078;SDS011;29744;49.078;12.878;2023-05-02T15:49:04;2.53;;;1.48;;
44078;SDS011;29744;49.078;12.878;2023-05-02T15:54:04;2.10;;;1.30;;
44078;SDS011;29744;49.078;12.878;2023-05-02T15:59:05;2.08;;;1.23;;
44078;SDS011;29744;49.078;12.878;2023-05-02T16:04:06;2.22;;;1.40;;
44078;SDS011;29744;49.078;12.878;2023-05-02T16:09:08;2.25;;;1.25;;
44078;SDS011;29744;49.078;12.878;2023-05-02T16:14:09;1.77;;;1.10;;
44078;SDS011;29744;49.078;12.878;2023-05-02T16:19:09;2.17;;;1.23;;
44078;SDS011;29744;49.078;12.878;2023-05-02T16:24:12;2.03;;;1.20;;
44078;SDS011;29744;49.078;12.878;2023-05-02T16:29:12;1.98;;;1.40;;
44078;SDS011;29744;49.078;12.878;2023-05-02T16:34:13;2.33;;;1.30;;
44078;SDS011;29744;49.078;12.878;2023-05-02T16:39:13;2.25;;;1.35;;
44078;SDS011;29744;49.078;12.878;2023-05-02T16:44:13;1.88;;;1.17;;
44078;SDS011;29744;49.078;12.878;2023-05-02T16:49:14;1.92;;;1.15;;
44078;SDS011;29744;49.078;12.878;2023-05-02T16:54:14;1.80;;;1.25;;
44078;SDS011;29744;49.078;12.878;2023-05-02T16:59:14;2.13;;;1.30;;
44078;SDS011;29744;49.078;12.878;2023-05-02T17:04:15;2.22;;;1.30;;
44078;SDS011;29744;49.078;12.878;2023-05-02T17:09:15;1.75;;;1.25;;
44078;SDS011;29744;49.078;12.878;2023-05-02T17:14:17;1.58;;;1.17;;
44078;SDS011;29744;49.078;12.878;2023-05-02T17:19:18;2.08;;;1.25;;
44078;SDS011;29744;49.078;12.878;2023-05-02T17:24:19;1.85;;;1.05;;
44078;SDS011;29744;49.078;12.878;2023-05-02T17:29:20;1.80;;;1.10;;
44078;SDS011;29744;49.078;12.878;2023-05-02T17:34:20;1.92;;;1.10;;
44078;SDS011;29744;49.078;12.878;2023-05-02T17:39:25;1.77;;;1.20;;
44078;SDS011;29744;49.078;12.878;2023-05-02T17:44:25;1.73;;;1.15;;
44078;SDS011;29744;49.078;12.878;2023-05-02T17:49:26;1.50;;;1.08;;
44078;SDS011;29744;49.078;12.878;2023-05-02T17:54:27;1.80;;;1.10;;
44078;SDS011;29744;49.078;12.878;2023-05-02T17:59:27;1.44;;;1.10;;
44078;SDS011;29744;49.078;12.878;2023-05-02T18:04:27;2.30;;;1.33;;
44078;SDS011;29744;49.078;12.878;2023-05-02T18:09:28;1.83;;;1.20;;
44078;SDS011;29744;49.078;12.878;2023-05-02T18:14:28;2.35;;;1.30;;
44078;SDS011;29744;49.078;12.878;2023-05-02T18:19:28;1.17;;;0.95;;
44078;SDS011;29744;49.078;12.878;2023-05-02T18:24:29;1.60;;;1.10;;
44078;SDS011;29744;49.078;12.878;2023-05-02T18:29:30;1.83;;;1.10;;
44078;SDS011;29744;49.078;12.878;2023-05-02T18:34:33;1.55;;;1.00;;
44078;SDS011;29744;49.078;12.878;2023-05-02T18:39:34;1.58;;;0.98;;
44078;SDS011;29744;49.078;12.878;2023-05-02T18:44:35;1.67;;;1.08;;
44078;SDS011;29744;49.078;12.878;2023-05-02T18:49:35;1.70;;;1.17;;
44078;SDS011;29744;49.078;12.878;2023-05-02T18:54:36;1.85;;;1.15;;
44078;SDS011;29744;49.078;12.878;2023-05-02T18:59:36;2.35;;;1.10;;
44078;SDS011;29744;49.078;12.878;2023-05-02T19:04:37;2.00;;;1.10;;
44078;SDS011;29744;49.078;12.878;2023-05-02T19:09:37;1.45;;;0.98;;
44078;SDS011;29744;49.078;12.878;2023-05-02T19:14:37;1.42;;;0.90;;
44078;SDS011;29744;49.078;12.878;2023-05-02T19:19:39;1.65;;;1.10;;
44078;SDS011;29744;49.078;12.878;2023-05-02T19:24:40;1.67;;;1.05;;
44078;SDS011;29744;49.078;12.878;2023-05-02T19:29:40;2.17;;;1.25;;
44078;SDS011;29744;49.078;12.878;2023-05-02T19:34:41;1.88;;;1.10;;
44078;SDS011;29744;49.078;12.878;2023-05-02T19:39:41;1.70;;;1.10;;
44078;SDS011;29744;49.078;12.878;2023-05-02T19:44:41;1.83;;;1.13;;
44078;SDS011;29744;49.078;12.878;2023-05-02T19:49:41;1.48;;;0.93;;
44078;SDS011;29744;49.078;12.878;2023-05-02T19:54:42;1.35;;;0.95;;
44078;SDS011;29744;49.078;12.878;2023-05-02T19:59:43;1.85;;;1.05;;
44078;SDS011;29744;49.078;12.878;2023-05-02T20:04:43;1.52;;;1.00;;
44078;SDS011;29744;49.078;12.878;2023-05-02T20:09:43;1.77;;;1.10;;
44078;SDS011;29744;49.078;12.878;2023-05-02T20:14:44;1.83;;;1.10;;
44078;SDS011;29744;49.078;12.878;2023-05-02T20:19:44;1.50;;;1.08;;
44078;SDS011;29744;49.078;12.878;2023-05-02T20:24:45;1.52;;;0.95;;
44078;SDS011;29744;49.078;12.878;2023-05-02T20:29:45;1.50;;;0.90;;
44078;SDS011;29744;49.078;12.878;2023-05-02T20:34:45;1.80;;;1.10;;
44078;SDS011;29744;49.078;12.878;2023-05-02T20:39:46;1.65;;;1.00;;
44078;SDS011;29744;49.078;12.878;2023-05-02T20:44:46;1.17;;;0.88;;
44078;SDS011;29744;49.078;12.878;2023-05-02T20:49:52;1.45;;;1.00;;
44078;SDS011;29744;49.078;12.878;2023-05-02T20:54:52;1.73;;;1.00;;
44078;SDS011;29744;49.078;12.878;2023-05-02T20:59:54;1.80;;;1.17;;
44078;SDS011;29744;49.078;12.878;2023-05-02T21:04:58;1.88;;;1.00;;
44078;SDS011;29744;49.078;12.878;2023-05-02T21:09:58;1.83;;;0.98;;
44078;SDS011;29744;49.078;12.878;2023-05-02T21:14:58;0.90;;;0.73;;
44078;SDS011;29744;49.078;12.878;2023-05-02T21:19:59;1.35;;;1.00;;
44078;SDS011;29744;49.078;12.878;2023-05-02T21:24:59;1.63;;;1.02;;
44078;SDS011;29744;49.078;12.878;2023-05-02T21:29:59;1.30;;;0.80;;
44078;SDS011;29744;49.078;12.878;2023-05-02T21:34:59;1.55;;;1.00;;
44078;SDS011;29744;49.078;12.878;2023-05-02T21:40:00;1.27;;;0.90;;
44078;SDS011;29744;49.078;12.878;2023-05-02T21:45:00;1.52;;;0.98;;
44078;SDS011;29744;49.078;12.878;2023-05-02T21:50:01;1.15;;;0.90;;
44078;SDS011;29744;49.078;12.878;2023-05-02T21:55:01;1.20;;;0.88;;
44078;SDS011;29744;49.078;12.878;2023-05-02T22:00:02;1.38;;;0.90;;
44078;SDS011;29744;49.078;12.878;2023-05-02T22:05:04;1.13;;;0.80;;
44078;SDS011;29744;49.078;12.878;2023-05-02T22:10:04;1.42;;;0.90;;
44078;SDS011;29744;49.078;12.878;2023-05-02T22:15:06;1.33;;;0.80;;
44078;SDS011;29744;49.078;12.878;2023-05-02T22:20:08;1.48;;;0.95;;
44078;SDS011;29744;49.078;12.878;2023-05-02T22:25:11;1.40;;;0.90;;
44078;SDS011;29744;49.078;12.878;2023-05-02T22:30:12;1.25;;;0.80;;
44078;SDS011;29744;49.078;12.878;2023-05-02T22:35:12;1.40;;;0.95;;
44078;SDS011;29744;49.078;12.878;2023-05-02T22:40:13;1.52;;;0.95;;
44078;SDS011;29744;49.078;12.878;2023-05-02T22:45:13;1.00;;;0.88;;
44078;SDS011;29744;49.078;12.878;2023-05-02T22:50:14;1.13;;;0.80;;
44078;SDS011;29744;49.078;12.878;2023-05-02T22:55:14;1.33;;;0.80;;
44078;SDS011;29744;49.078;12.878;2023-05-02T23:00:15;1.65;;;0.90;;
44078;SDS011;29744;49.078;12.878;2023-05-02T23:05:15;1.92;;;0.85;;
44078;SDS011;29744;49.078;12.878;2023-05-02T23:10:16;1.38;;;0.90;;
44078;SDS011;29744;49.078;12.878;2023-05-02T23:15:16;1.48;;;0.90;;
44078;SDS011;29744;49.078;12.878;2023-05-02T23:20:17;1.00;;;0.85;;
44078;SDS011;29744;49.078;12.878;2023-05-02T23:25:19;1.13;;;0.90;;
44078;SDS011;29744;49.078;12.878;2023-05-02T23:30:21;1.00;;;0.77;;
44078;SDS011;29744;49.078;12.878;2023-05-02T23:35:21;1.40;;;0.80;;
44078;SDS011;29744;49.078;12.878;2023-05-02T23:40:26;1.38;;;1.00;;
44078;SDS011;29744;49.078;12.878;2023-05-02T23:45:27;1.52;;;0.85;;
44078;SDS011;29744;49.078;12.878;2023-05-02T23:50:27;1.10;;;0.80;;
44078;SDS011;29744;49.078;12.878;2023-05-02T23:55:27;1.52;;;1.00;;
